Time,TemperatureF,DewpointF,PressureIn,WindDirection,WindDirectionDegrees,WindSpeedMPH,WindSpeedGustMPH,Humidity,HourlyPrecipIn,Conditions,Clouds,dailyrainin,SoftwareType,DateUTC
2013-08-05 00:02:00,84.0,69.0,-100.00,North,-999,-999.0,-999.0,62,0.00,,,0.00,,2013-08-05 05:02:00,
2013-08-05 00:12:00,84.0,69.0,-100.00,North,-999,-999.0,-999.0,62,0.00,,,0.00,,2013-08-05 05:12:00,
2013-08-05 00:22:00,84.0,69.0,-100.00,North,-999,-999.0,-999.0,62,0.00,,,0.00,,2013-08-05 05:22:00,
2013-08-05 00:32:00,83.0,69.0,-100.00,North,-999,-999.0,-999.0,64,0.00,,,0.00,,2013-08-05 05:32:00,
2013-08-05 00:53:00,82.0,69.0,-100.00,North,-999,-999.0,-999.0,65,0.00,,,0.00,,2013-08-05 05:53:00,
2013-08-05 01:02:00,81.0,69.0,-100.00,North,-999,-999.0,-999.0,66,0.00,,,0.00,,2013-08-05 06:02:00,
2013-08-05 01:22:00,81.0,69.0,-100.00,North,-999,-999.0,-999.0,67,-99.99,,,0.00,,2013-08-05 06:22:00,
2013-08-05 01:32:00,81.0,69.0,-100.00,North,-999,-999.0,-999.0,67,-99.99,,,0.00,,2013-08-05 06:32:00,
2013-08-05 01:52:00,80.0,69.0,-100.00,North,-999,-999.0,-999.0,70,0.00,,,0.00,,2013-08-05 06:52:00,
2013-08-05 02:02:00,79.0,70.0,-100.00,North,-999,-999.0,-999.0,72,0.00,,,0.00,,2013-08-05 07:02:00,
2013-08-05 02:22:00,79.0,70.0,-100.00,North,-999,-999.0,-999.0,73,0.00,,,-99.99,,2013-08-05 07:22:00,
2013-08-05 02:32:00,79.0,69.0,-100.00,North,-999,-999.0,-999.0,72,0.00,,,0.00,,2013-08-05 07:32:00,
2013-08-05 02:53:00,78.0,69.0,-100.00,North,-999,-999.0,-999.0,75,0.00,,,0.00,,2013-08-05 07:53:00,
2013-08-05 03:02:00,77.0,68.0,-100.00,North,-999,-999.0,-999.0,72,0.00,,,0.00,,2013-08-05 08:02:00,
2013-08-05 03:22:00,77.0,69.0,-100.00,North,-999,-999.0,-999.0,76,0.00,,,0.00,,2013-08-05 08:22:00,
2013-08-05 03:34:00,77.0,69.0,-100.00,North,-999,-999.0,-999.0,77,0.00,,,0.00,,2013-08-05 08:34:00,
2013-08-05 03:46:00,77.0,69.0,-100.00,North,-999,-999.0,-999.0,77,0.00,,,0.00,,2013-08-05 08:46:00,
2013-08-05 03:53:00,77.0,69.0,-100.00,North,-999,-999.0,-999.0,77,0.00,,,0.00,,2013-08-05 08:53:00,
2013-08-05 04:06:00,77.0,69.0,-100.00,North,-999,-999.0,-999.0,77,0.00,,,0.00,,2013-08-05 09:06:00,
2013-08-05 04:38:00,76.0,64.0,-100.00,North,-999,-999.0,-999.0,66,0.00,,,0.00,,2013-08-05 09:38:00,
2013-08-05 04:53:00,76.0,64.0,-100.00,North,-999,-999.0,-999.0,68,-99.99,,,0.00,,2013-08-05 09:53:00,
2013-08-05 05:07:00,75.0,65.0,-100.00,North,-999,-999.0,-999.0,71,0.00,,,0.00,,2013-08-05 10:07:00,
2013-08-05 05:13:00,75.0,65.0,-100.00,North,-999,-999.0,-999.0,71,0.00,,,0.00,,2013-08-05 10:13:00,
2013-08-05 05:32:00,74.0,67.0,-100.00,North,-999,-999.0,-999.0,78,0.00,,,0.00,,2013-08-05 10:32:00,
2013-08-05 05:53:00,73.0,66.0,-100.00,North,-999,-999.0,-999.0,79,0.00,,,0.00,,2013-08-05 10:53:00,
2013-08-05 06:07:00,73.0,67.0,-100.00,North,-999,-999.0,-999.0,80,0.00,,,0.00,,2013-08-05 11:07:00,
2013-08-05 06:14:00,73.0,67.0,-100.00,North,-999,-999.0,-999.0,80,0.00,,,0.00,,2013-08-05 11:14:00,
2013-08-05 06:25:00,73.0,67.0,-100.00,North,-999,-999.0,-999.0,80,0.00,,,0.00,,2013-08-05 11:25:00,
2013-08-05 06:35:00,73.0,67.0,-100.00,North,-999,-999.0,-999.0,83,0.00,,,0.00,,2013-08-05 11:35:00,
2013-08-05 06:58:00,72.0,68.0,-100.00,North,-999,-999.0,-999.0,86,0.00,,,0.00,,2013-08-05 11:58:00,
2013-08-05 07:06:00,72.0,68.0,-100.00,North,-999,-999.0,-999.0,86,0.00,,,0.00,,2013-08-05 12:06:00,
2013-08-05 07:26:00,72.0,69.0,-100.00,North,-999,-999.0,-999.0,90,-99.99,,,0.00,,2013-08-05 12:26:00,
2013-08-05 07:33:00,72.0,69.0,-100.00,North,-999,-999.0,-999.0,90,-99.99,,,0.00,,2013-08-05 12:33:00,
2013-08-05 07:55:00,72.0,69.0,-100.00,North,-999,-999.0,-999.0,92,0.00,,,0.00,,2013-08-05 12:55:00,
2013-08-05 08:02:00,72.0,70.0,-100.00,North,-999,-999.0,-999.0,91,-99.99,,,0.00,,2013-08-05 13:02:00,
2013-08-05 08:36:00,74.0,70.0,-100.00,North,-999,-999.0,-999.0,88,0.00,,,0.00,,2013-08-05 13:36:00,
2013-08-05 08:54:00,75.0,71.0,-100.00,North,-999,-999.0,-999.0,86,0.00,,,0.00,,2013-08-05 13:54:00,
2013-08-05 09:06:00,76.0,71.0,-100.00,North,-999,-999.0,-999.0,84,0.00,,,0.00,,2013-08-05 14:06:00,
2013-08-05 09:25:00,76.0,71.0,-100.00,North,-999,-999.0,-999.0,84,0.00,,,-99.99,,2013-08-05 14:25:00,
2013-08-05 09:36:00,76.0,71.0,-100.00,North,-999,-999.0,-999.0,84,0.00,,,-99.99,,2013-08-05 14:36:00,
2013-08-05 09:53:00,77.0,70.0,-100.00,North,-999,-999.0,-999.0,77,0.00,,,0.00,,2013-08-05 14:53:00,
2013-08-05 10:07:00,79.0,71.0,-100.00,North,-999,-999.0,-999.0,76,0.00,,,0.00,,2013-08-05 15:07:00,
2013-08-05 10:25:00,80.0,69.0,-100.00,North,-999,-999.0,-999.0,69,0.00,,,-99.99,,2013-08-05 15:25:00,
2013-08-05 10:35:00,82.0,70.0,-100.00,North,-999,-999.0,-999.0,66,0.00,,,0.00,,2013-08-05 15:35:00,
2013-08-05 10:55:00,82.0,69.0,-100.00,North,-999,-999.0,-999.0,63,0.00,,,0.00,,2013-08-05 15:55:00,
2013-08-05 11:06:00,82.0,69.0,-100.00,North,-999,-999.0,-999.0,63,0.00,,,0.00,,2013-08-05 16:06:00,
2013-08-05 11:15:00,82.0,69.0,-100.00,North,-999,-999.0,-999.0,63,0.00,,,0.00,,2013-08-05 16:15:00,
2013-08-05 11:24:00,82.0,69.0,-100.00,North,-999,-999.0,-999.0,63,0.00,,,0.00,,2013-08-05 16:24:00,
2013-08-05 12:00:00,85.0,66.0,-100.00,North,-999,-999.0,-999.0,53,0.00,,,-99.99,,2013-08-05 17:00:00,
2013-08-05 12:04:00,86.0,66.0,-100.00,North,-999,-999.0,-999.0,50,-99.99,,,0.00,,2013-08-05 17:04:00,
2013-08-05 12:22:00,87.0,66.0,-100.00,North,-999,-999.0,-999.0,49,-99.99,,,0.00,,2013-08-05 17:22:00,
2013-08-05 12:35:00,87.0,65.0,-100.00,North,-999,-999.0,-999.0,47,0.00,,,0.00,,2013-08-05 17:35:00,
2013-08-05 12:46:00,87.0,65.0,-100.00,North,-999,-999.0,-999.0,47,0.00,,,0.00,,2013-08-05 17:46:00,
2013-08-05 12:55:00,87.0,65.0,-100.00,North,-999,-999.0,-999.0,47,0.00,,,0.00,,2013-08-05 17:55:00,
2013-08-05 13:07:00,87.0,65.0,-100.00,North,-999,-999.0,-999.0,47,0.00,,,0.00,,2013-08-05 18:07:00,
2013-08-05 13:26:00,90.0,63.0,-100.00,North,-999,-999.0,-999.0,42,0.00,,,0.00,,2013-08-05 18:26:00,
2013-08-05 13:35:00,90.0,64.0,-100.00,North,-999,-999.0,-999.0,42,0.00,,,0.00,,2013-08-05 18:35:00,
2013-08-05 13:53:00,91.0,63.0,-100.00,North,-999,-999.0,-999.0,39,-99.99,,,-99.99,,2013-08-05 18:53:00,
2013-08-05 14:05:00,91.0,61.0,-100.00,North,-999,-999.0,-999.0,37,0.00,,,0.00,,2013-08-05 19:05:00,
2013-08-05 14:25:00,92.0,62.0,-100.00,North,-999,-999.0,-999.0,36,0.00,,,0.00,,2013-08-05 19:25:00,
2013-08-05 14:35:00,93.0,61.0,-100.00,North,-999,-999.0,-999.0,35,0.00,,,0.00,,2013-08-05 19:35:00,
2013-08-05 14:48:00,93.0,61.0,-100.00,North,-999,-999.0,-999.0,35,0.00,,,0.00,,2013-08-05 19:48:00,
2013-08-05 14:54:00,93.0,61.0,-100.00,North,-999,-999.0,-999.0,35,0.00,,,0.00,,2013-08-05 19:54:00,
2013-08-05 15:35:00,95.0,59.0,-100.00,North,-999,-999.0,-999.0,30,0.00,,,0.00,,2013-08-05 20:35:00,
2013-08-05 15:55:00,94.0,59.0,-100.00,North,-999,-999.0,-999.0,31,-99.99,,,0.00,,2013-08-05 20:55:00,
2013-08-05 16:05:00,94.0,59.0,-100.00,North,-999,-999.0,-999.0,31,-99.99,,,0.00,,2013-08-05 21:05:00,
2013-08-05 16:33:00,95.0,59.0,-100.00,North,-999,-999.0,-999.0,30,0.00,,,0.00,,2013-08-05 21:33:00,
2013-08-05 16:45:00,95.0,59.0,-100.00,North,-999,-999.0,-999.0,30,0.00,,,0.00,,2013-08-05 21:45:00,
2013-08-05 16:53:00,95.0,59.0,-100.00,North,-999,-999.0,-999.0,30,0.00,,,0.00,,2013-08-05 21:53:00,
2013-08-05 17:05:00,95.0,59.0,-100.00,North,-999,-999.0,-999.0,30,0.00,,,0.00,,2013-08-05 22:05:00,
2013-08-05 17:53:00,96.0,58.0,-100.00,North,-999,-999.0,-999.0,29,-99.99,,,0.00,,2013-08-05 22:53:00,
2013-08-05 18:33:00,95.0,60.0,-100.00,North,-999,-999.0,-999.0,31,0.00,,,0.00,,2013-08-05 23:33:00,
2013-08-05 18:55:00,95.0,59.0,-100.00,North,-999,-999.0,-999.0,30,0.00,,,0.00,,2013-08-05 23:55:00,
2013-08-05 19:35:00,94.0,59.0,-100.00,North,-999,-999.0,-999.0,32,0.00,,,0.00,,2013-08-06 00:35:00,
2013-08-05 19:45:00,94.0,59.0,-100.00,North,-999,-999.0,-999.0,32,0.00,,,0.00,,2013-08-06 00:45:00,
2013-08-05 19:55:00,93.0,59.0,-100.00,North,-999,-999.0,-999.0,32,0.00,,,0.00,,2013-08-06 00:55:00,
2013-08-05 20:37:00,91.0,59.0,-100.00,North,-999,-999.0,-999.0,35,0.00,,,0.00,,2013-08-06 01:37:00,
2013-08-05 20:55:00,90.0,59.0,-100.00,North,-999,-999.0,-999.0,36,0.00,,,0.00,,2013-08-06 01:55:00,
2013-08-05 21:32:00,88.0,59.0,-100.00,North,-999,-999.0,-999.0,38,0.00,,,0.00,,2013-08-06 02:32:00,
2013-08-05 21:52:00,87.0,59.0,-100.00,North,-999,-999.0,-999.0,39,0.00,,,0.00,,2013-08-06 02:52:00,
2013-08-05 22:35:00,87.0,62.0,-100.00,North,-999,-999.0,-999.0,44,0.00,,,0.00,,2013-08-06 03:35:00,
2013-08-05 22:45:00,87.0,62.0,-100.00,North,-999,-999.0,-999.0,44,0.00,,,0.00,,2013-08-06 03:45:00,
2013-08-05 22:52:00,87.0,62.0,-100.00,North,-999,-999.0,-999.0,44,0.00,,,0.00,,2013-08-06 03:52:00,
2013-08-05 23:53:00,86.0,65.0,-100.00,North,-999,-999.0,-999.0,50,0.00,,,0.00,,2013-08-06 04:53:00,